sensor_id;sensor_type;location;lat;lon;timestamp;P1;durP1;ratioP1;P2;durP2;ratioP2
5961;SDS011;3007;50.770;0.250;2024-03-02T00:00:52;6.23;;;1.40;;
5961;SDS011;3007;50.770;0.250;2024-03-02T00:03:19;6.33;;;1.40;;
5961;SDS011;3007;50.770;0.250;2024-03-02T00:05:50;8.47;;;1.47;;
5961;SDS011;3007;50.770;0.250;2024-03-02T00:08:22;10.63;;;1.63;;
5961;SDS011;3007;50.770;0.250;2024-03-02T00:10:52;9.73;;;1.67;;
5961;SDS011;3007;50.770;0.250;2024-03-02T00:13:23;6.97;;;1.50;;
5961;SDS011;3007;50.770;0.250;2024-03-02T00:15:51;8.23;;;1.30;;
5961;SDS011;3007;50.770;0.250;2024-03-02T00:18:19;12.60;;;2.10;;
5961;SDS011;3007;50.770;0.250;2024-03-02T00:20:47;10.47;;;2.53;;
5961;SDS011;3007;50.770;0.250;2024-03-02T00:23:16;7.50;;;1.93;;
5961;SDS011;3007;50.770;0.250;2024-03-02T00:25:46;9.47;;;1.67;;
5961;SDS011;3007;50.770;0.250;2024-03-02T00:28:16;7.33;;;1.30;;
5961;SDS011;3007;50.770;0.250;2024-03-02T00:33:30;6.40;;;1.50;;
5961;SDS011;3007;50.770;0.250;2024-03-02T00:35:58;12.37;;;2.20;;
5961;SDS011;3007;50.770;0.250;2024-03-02T00:38:27;10.13;;;1.73;;
5961;SDS011;3007;50.770;0.250;2024-03-02T00:40:54;5.23;;;1.40;;
5961;SDS011;3007;50.770;0.250;2024-03-02T00:46:10;8.13;;;1.80;;
5961;SDS011;3007;50.770;0.250;2024-03-02T00:48:39;4.80;;;1.30;;
5961;SDS011;3007;50.770;0.250;2024-03-02T00:51:14;6.90;;;1.37;;
5961;SDS011;3007;50.770;0.250;2024-03-02T00:53:42;6.63;;;1.40;;
5961;SDS011;3007;50.770;0.250;2024-03-02T00:56:09;9.90;;;1.50;;
5961;SDS011;3007;50.770;0.250;2024-03-02T00:58:37;6.03;;;1.70;;
5961;SDS011;3007;50.770;0.250;2024-03-02T01:01:04;9.10;;;1.93;;
5961;SDS011;3007;50.770;0.250;2024-03-02T01:03:32;10.83;;;2.30;;
5961;SDS011;3007;50.770;0.250;2024-03-02T01:05:59;8.40;;;1.57;;
5961;SDS011;3007;50.770;0.250;2024-03-02T01:08:25;14.23;;;2.13;;
5961;SDS011;3007;50.770;0.250;2024-03-02T01:10:54;7.87;;;2.03;;
5961;SDS011;3007;50.770;0.250;2024-03-02T01:13:21;9.23;;;1.83;;
5961;SDS011;3007;50.770;0.250;2024-03-02T01:15:48;5.97;;;1.60;;
5961;SDS011;3007;50.770;0.250;2024-03-02T01:18:15;8.47;;;2.30;;
5961;SDS011;3007;50.770;0.250;2024-03-02T01:20:42;8.43;;;2.17;;
5961;SDS011;3007;50.770;0.250;2024-03-02T01:23:09;8.23;;;1.90;;
5961;SDS011;3007;50.770;0.250;2024-03-02T01:25:36;10.07;;;1.90;;
5961;SDS011;3007;50.770;0.250;2024-03-02T01:28:04;8.37;;;1.80;;
5961;SDS011;3007;50.770;0.250;2024-03-02T01:30:32;10.30;;;1.97;;
5961;SDS011;3007;50.770;0.250;2024-03-02T01:32:58;5.13;;;1.00;;
5961;SDS011;3007;50.770;0.250;2024-03-02T01:35:27;10.20;;;1.60;;
5961;SDS011;3007;50.770;0.250;2024-03-02T01:37:54;8.90;;;2.20;;
5961;SDS011;3007;50.770;0.250;2024-03-02T01:40:21;13.97;;;1.53;;
5961;SDS011;3007;50.770;0.250;2024-03-02T01:42:51;7.37;;;2.23;;
5961;SDS011;3007;50.770;0.250;2024-03-02T01:45:20;8.03;;;1.70;;
5961;SDS011;3007;50.770;0.250;2024-03-02T01:47:47;11.50;;;2.27;;
5961;SDS011;3007;50.770;0.250;2024-03-02T01:50:15;13.77;;;1.83;;
5961;SDS011;3007;50.770;0.250;2024-03-02T01:52:42;15.00;;;2.20;;
5961;SDS011;3007;50.770;0.250;2024-03-02T01:55:09;9.50;;;2.17;;
5961;SDS011;3007;50.770;0.250;2024-03-02T01:57:36;6.87;;;1.70;;
5961;SDS011;3007;50.770;0.250;2024-03-02T02:00:03;8.20;;;1.87;;
5961;SDS011;3007;50.770;0.250;2024-03-02T02:02:32;10.47;;;2.10;;
5961;SDS011;3007;50.770;0.250;2024-03-02T02:04:59;16.27;;;2.50;;
5961;SDS011;3007;50.770;0.250;2024-03-02T02:07:26;12.27;;;2.77;;
5961;SDS011;3007;50.770;0.250;2024-03-02T02:09:53;17.10;;;2.53;;
5961;SDS011;3007;50.770;0.250;2024-03-02T02:12:20;13.83;;;2.67;;
5961;SDS011;3007;50.770;0.250;2024-03-02T02:14:47;10.80;;;2.50;;
5961;SDS011;3007;50.770;0.250;2024-03-02T02:17:15;11.67;;;2.40;;
5961;SDS011;3007;50.770;0.250;2024-03-02T02:19:43;12.73;;;2.90;;
5961;SDS011;3007;50.770;0.250;2024-03-02T02:22:11;19.47;;;2.63;;
5961;SDS011;3007;50.770;0.250;2024-03-02T02:24:39;12.90;;;2.70;;
5961;SDS011;3007;50.770;0.250;2024-03-02T02:27:06;16.73;;;3.00;;
5961;SDS011;3007;50.770;0.250;2024-03-02T02:29:33;12.33;;;2.43;;
5961;SDS011;3007;50.770;0.250;2024-03-02T02:32:00;14.27;;;3.57;;
5961;SDS011;3007;50.770;0.250;2024-03-02T02:34:27;20.50;;;3.07;;
5961;SDS011;3007;50.770;0.250;2024-03-02T02:36:54;9.97;;;3.33;;
5961;SDS011;3007;50.770;0.250;2024-03-02T02:39:22;16.43;;;2.70;;
5961;SDS011;3007;50.770;0.250;2024-03-02T02:41:49;16.07;;;3.27;;
5961;SDS011;3007;50.770;0.250;2024-03-02T02:44:16;11.03;;;2.47;;
5961;SDS011;3007;50.770;0.250;2024-03-02T02:46:43;19.73;;;3.07;;
5961;SDS011;3007;50.770;0.250;2024-03-02T02:49:09;12.03;;;2.53;;
5961;SDS011;3007;50.770;0.250;2024-03-02T02:51:36;13.13;;;2.37;;
5961;SDS011;3007;50.770;0.250;2024-03-02T02:54:03;11.73;;;2.40;;
5961;SDS011;3007;50.770;0.250;2024-03-02T02:56:31;13.03;;;2.57;;
5961;SDS011;3007;50.770;0.250;2024-03-02T02:58:58;16.40;;;2.43;;
5961;SDS011;3007;50.770;0.250;2024-03-02T03:01:25;14.27;;;3.30;;
5961;SDS011;3007;50.770;0.250;2024-03-02T03:03:52;17.60;;;2.63;;
5961;SDS011;3007;50.770;0.250;2024-03-02T03:06:19;19.27;;;2.67;;
5961;SDS011;3007;50.770;0.250;2024-03-02T03:08:45;12.47;;;2.77;;
5961;SDS011;3007;50.770;0.250;2024-03-02T03:11:12;16.83;;;2.93;;
5961;SDS011;3007;50.770;0.250;2024-03-02T03:13:40;13.40;;;2.57;;
5961;SDS011;3007;50.770;0.250;2024-03-02T03:16:07;15.70;;;3.20;;
5961;SDS011;3007;50.770;0.250;2024-03-02T03:18:34;18.50;;;2.63;;
5961;SDS011;3007;50.770;0.250;2024-03-02T03:21:01;11.83;;;2.33;;
5961;SDS011;3007;50.770;0.250;2024-03-02T03:23:28;11.43;;;2.17;;
5961;SDS011;3007;50.770;0.250;2024-03-02T03:25:55;19.57;;;3.30;;
5961;SDS011;3007;50.770;0.250;2024-03-02T03:28:22;16.80;;;3.23;;
5961;SDS011;3007;50.770;0.250;2024-03-02T03:30:51;13.27;;;2.83;;
5961;SDS011;3007;50.770;0.250;2024-03-02T03:33:18;11.23;;;2.80;;
5961;SDS011;3007;50.770;0.250;2024-03-02T03:35:45;17.80;;;2.80;;
5961;SDS011;3007;50.770;0.250;2024-03-02T03:38:13;9.07;;;2.50;;
5961;SDS011;3007;50.770;0.250;2024-03-02T03:40:40;16.90;;;3.33;;
5961;SDS011;3007;50.770;0.250;2024-03-02T03:43:07;13.00;;;2.50;;
5961;SDS011;3007;50.770;0.250;2024-03-02T03:45:33;18.30;;;2.93;;
5961;SDS011;3007;50.770;0.250;2024-03-02T03:48:02;16.90;;;2.63;;
5961;SDS011;3007;50.770;0.250;2024-03-02T03:50:29;12.33;;;2.33;;
5961;SDS011;3007;50.770;0.250;2024-03-02T03:52:56;23.03;;;3.33;;
5961;SDS011;3007;50.770;0.250;2024-03-02T03:55:22;16.10;;;2.83;;
5961;SDS011;3007;50.770;0.250;2024-03-02T03:57:49;15.03;;;2.53;;
5961;SDS011;3007;50.770;0.250;2024-03-02T04:00:15;17.37;;;3.13;;
5961;SDS011;3007;50.770;0.250;2024-03-02T04:02:42;22.83;;;3.13;;
5961;SDS011;3007;50.770;0.250;2024-03-02T04:05:10;16.23;;;3.00;;
5961;SDS011;3007;50.770;0.250;2024-03-02T04:07:37;15.13;;;3.07;;
5961;SDS011;3007;50.770;0.250;2024-03-02T04:10:08;18.13;;;2.57;;
5961;SDS011;3007;50.770;0.250;2024-03-02T04:12:35;18.23;;;3.37;;
5961;SDS011;3007;50.770;0.250;2024-03-02T04:15:03;21.50;;;3.20;;
5961;SDS011;3007;50.770;0.250;2024-03-02T04:17:31;18.83;;;3.80;;
5961;SDS011;3007;50.770;0.250;2024-03-02T04:20:04;17.73;;;3.33;;
5961;SDS011;3007;50.770;0.250;2024-03-02T04:22:34;18.40;;;3.13;;
5961;SDS011;3007;50.770;0.250;2024-03-02T04:25:01;18.13;;;3.00;;
5961;SDS011;3007;50.770;0.250;2024-03-02T04:27:29;21.07;;;4.13;;
5961;SDS011;3007;50.770;0.250;2024-03-02T04:29:57;17.37;;;3.37;;
5961;SDS011;3007;50.770;0.250;2024-03-02T04:32:25;19.03;;;2.73;;
5961;SDS011;3007;50.770;0.250;2024-03-02T04:34:52;17.97;;;3.40;;
5961;SDS011;3007;50.770;0.250;2024-03-02T04:37:19;17.80;;;2.60;;
5961;SDS011;3007;50.770;0.250;2024-03-02T04:39:47;12.37;;;2.60;;
5961;SDS011;3007;50.770;0.250;2024-03-02T04:42:13;13.33;;;2.57;;
5961;SDS011;3007;50.770;0.250;2024-03-02T04:44:40;12.90;;;3.33;;
5961;SDS011;3007;50.770;0.250;2024-03-02T04:47:07;16.03;;;2.63;;
5961;SDS011;3007;50.770;0.250;2024-03-02T04:49:34;16.47;;;2.90;;
5961;SDS011;3007;50.770;0.250;2024-03-02T04:52:01;18.20;;;2.83;;
5961;SDS011;3007;50.770;0.250;2024-03-02T04:54:28;13.53;;;2.67;;
5961;SDS011;3007;50.770;0.250;2024-03-02T04:56:56;14.00;;;3.40;;
5961;SDS011;3007;50.770;0.250;2024-03-02T04:59:23;7.67;;;2.47;;
5961;SDS011;3007;50.770;0.250;2024-03-02T05:01:51;16.27;;;2.93;;
5961;SDS011;3007;50.770;0.250;2024-03-02T05:04:18;16.00;;;2.67;;
5961;SDS011;3007;50.770;0.250;2024-03-02T05:06:45;11.93;;;2.70;;
5961;SDS011;3007;50.770;0.250;2024-03-02T05:09:17;11.00;;;2.67;;
5961;SDS011;3007;50.770;0.250;2024-03-02T05:11:44;19.87;;;2.97;;
5961;SDS011;3007;50.770;0.250;2024-03-02T05:14:36;14.60;;;2.47;;
5961;SDS011;3007;50.770;0.250;2024-03-02T05:17:04;19.73;;;2.90;;
5961;SDS011;3007;50.770;0.250;2024-03-02T05:19:31;12.73;;;2.83;;
5961;SDS011;3007;50.770;0.250;2024-03-02T05:21:58;19.03;;;3.83;;
5961;SDS011;3007;50.770;0.250;2024-03-02T05:24:25;16.80;;;2.77;;
5961;SDS011;3007;50.770;0.250;2024-03-02T05:26:53;14.47;;;2.77;;
5961;SDS011;3007;50.770;0.250;2024-03-02T05:29:22;15.27;;;2.53;;
5961;SDS011;3007;50.770;0.250;2024-03-02T05:31:50;14.10;;;2.90;;
5961;SDS011;3007;50.770;0.250;2024-03-02T05:34:17;13.13;;;2.87;;
5961;SDS011;3007;50.770;0.250;2024-03-02T05:36:46;19.67;;;2.33;;
5961;SDS011;3007;50.770;0.250;2024-03-02T05:39:13;8.97;;;2.20;;
5961;SDS011;3007;50.770;0.250;2024-03-02T05:41:40;17.37;;;3.40;;
5961;SDS011;3007;50.770;0.250;2024-03-02T05:44:07;20.50;;;3.20;;
5961;SDS011;3007;50.770;0.250;2024-03-02T05:46:34;22.53;;;3.97;;
5961;SDS011;3007;50.770;0.250;2024-03-02T05:49:02;16.10;;;3.60;;
5961;SDS011;3007;50.770;0.250;2024-03-02T05:51:29;14.50;;;2.63;;
5961;SDS011;3007;50.770;0.250;2024-03-02T05:53:56;15.13;;;2.23;;
5961;SDS011;3007;50.770;0.250;2024-03-02T05:56:22;15.70;;;3.40;;
5961;SDS011;3007;50.770;0.250;2024-03-02T05:58:49;10.63;;;2.83;;
5961;SDS011;3007;50.770;0.250;2024-03-02T06:01:32;13.97;;;2.70;;
5961;SDS011;3007;50.770;0.250;2024-03-02T06:03:58;20.43;;;2.70;;
5961;SDS011;3007;50.770;0.250;2024-03-02T06:06:26;12.73;;;2.13;;
5961;SDS011;3007;50.770;0.250;2024-03-02T06:08:53;15.60;;;2.60;;
5961;SDS011;3007;50.770;0.250;2024-03-02T06:11:20;13.03;;;2.57;;
5961;SDS011;3007;50.770;0.250;2024-03-02T06:13:47;17.53;;;3.13;;
5961;SDS011;3007;50.770;0.250;2024-03-02T06:16:14;11.20;;;2.77;;
5961;SDS011;3007;50.770;0.250;2024-03-02T06:18:40;16.93;;;2.53;;
5961;SDS011;3007;50.770;0.250;2024-03-02T06:21:07;15.70;;;3.07;;
5961;SDS011;3007;50.770;0.250;2024-03-02T06:23:35;14.63;;;2.30;;
5961;SDS011;3007;50.770;0.250;2024-03-02T06:26:02;14.23;;;2.67;;
5961;SDS011;3007;50.770;0.250;2024-03-02T06:28:29;14.27;;;2.10;;
5961;SDS011;3007;50.770;0.250;2024-03-02T06:30:56;17.33;;;2.47;;
5961;SDS011;3007;50.770;0.250;2024-03-02T06:33:40;14.83;;;2.33;;
5961;SDS011;3007;50.770;0.250;2024-03-02T06:36:07;11.37;;;2.33;;
5961;SDS011;3007;50.770;0.250;2024-03-02T06:38:36;10.47;;;2.03;;
5961;SDS011;3007;50.770;0.250;2024-03-02T06:41:09;12.17;;;2.70;;
5961;SDS011;3007;50.770;0.250;2024-03-02T06:43:37;18.20;;;2.97;;
5961;SDS011;3007;50.770;0.250;2024-03-02T06:46:04;12.43;;;2.73;;
5961;SDS011;3007;50.770;0.250;2024-03-02T06:48:34;16.20;;;2.87;;
5961;SDS011;3007;50.770;0.250;2024-03-02T06:51:01;15.50;;;3.13;;
5961;SDS011;3007;50.770;0.250;2024-03-02T06:53:29;15.30;;;3.00;;
5961;SDS011;3007;50.770;0.250;2024-03-02T06:56:00;15.30;;;2.80;;
5961;SDS011;3007;50.770;0.250;2024-03-02T06:58:27;16.10;;;2.87;;
5961;SDS011;3007;50.770;0.250;2024-03-02T07:00:53;15.57;;;2.13;;
5961;SDS011;3007;50.770;0.250;2024-03-02T07:03:20;14.23;;;2.83;;
5961;SDS011;3007;50.770;0.250;2024-03-02T07:05:47;10.23;;;2.57;;
5961;SDS011;3007;50.770;0.250;2024-03-02T07:08:14;15.50;;;2.57;;
5961;SDS011;3007;50.770;0.250;2024-03-02T07:10:40;16.30;;;2.90;;
5961;SDS011;3007;50.770;0.250;2024-03-02T07:13:09;11.67;;;2.43;;
5961;SDS011;3007;50.770;0.250;2024-03-02T07:15:36;17.50;;;4.23;;
5961;SDS011;3007;50.770;0.250;2024-03-02T07:18:24;19.67;;;3.63;;
5961;SDS011;3007;50.770;0.250;2024-03-02T07:20:51;22.07;;;3.03;;
5961;SDS011;3007;50.770;0.250;2024-03-02T07:23:18;9.07;;;2.17;;
5961;SDS011;3007;50.770;0.250;2024-03-02T07:25:48;9.10;;;2.30;;
5961;SDS011;3007;50.770;0.250;2024-03-02T07:28:16;16.60;;;2.57;;
5961;SDS011;3007;50.770;0.250;2024-03-02T07:30:43;11.93;;;2.30;;
5961;SDS011;3007;50.770;0.250;2024-03-02T07:33:10;8.30;;;1.87;;
5961;SDS011;3007;50.770;0.250;2024-03-02T07:35:37;18.40;;;2.67;;
5961;SDS011;3007;50.770;0.250;2024-03-02T07:38:08;16.93;;;2.70;;
5961;SDS011;3007;50.770;0.250;2024-03-02T07:40:35;9.50;;;2.00;;
5961;SDS011;3007;50.770;0.250;2024-03-02T07:43:01;15.40;;;2.13;;
5961;SDS011;3007;50.770;0.250;2024-03-02T07:45:30;14.93;;;2.50;;
5961;SDS011;3007;50.770;0.250;2024-03-02T07:47:56;7.90;;;1.93;;
5961;SDS011;3007;50.770;0.250;2024-03-02T07:50:23;10.23;;;1.97;;
5961;SDS011;3007;50.770;0.250;2024-03-02T07:52:50;11.17;;;2.30;;
5961;SDS011;3007;50.770;0.250;2024-03-02T07:55:17;15.10;;;2.90;;
5961;SDS011;3007;50.770;0.250;2024-03-02T07:57:44;9.88;;;2.47;;
5961;SDS011;3007;50.770;0.250;2024-03-02T08:00:11;11.53;;;2.73;;
5961;SDS011;3007;50.770;0.250;2024-03-02T08:02:41;11.03;;;2.17;;
5961;SDS011;3007;50.770;0.250;2024-03-02T08:05:08;9.73;;;1.90;;
5961;SDS011;3007;50.770;0.250;2024-03-02T08:07:35;8.33;;;1.97;;
5961;SDS011;3007;50.770;0.250;2024-03-02T08:10:02;11.93;;;2.23;;
5961;SDS011;3007;50.770;0.250;2024-03-02T08:12:29;8.87;;;2.17;;
5961;SDS011;3007;50.770;0.250;2024-03-02T08:14:56;11.17;;;2.37;;
5961;SDS011;3007;50.770;0.250;2024-03-02T08:17:23;13.20;;;2.90;;
5961;SDS011;3007;50.770;0.250;2024-03-02T08:19:51;5.73;;;1.63;;
5961;SDS011;3007;50.770;0.250;2024-03-02T08:22:18;11.23;;;2.20;;
5961;SDS011;3007;50.770;0.250;2024-03-02T08:24:45;11.33;;;2.90;;
5961;SDS011;3007;50.770;0.250;2024-03-02T08:27:12;9.90;;;1.83;;
5961;SDS011;3007;50.770;0.250;2024-03-02T08:29:39;7.10;;;1.80;;
5961;SDS011;3007;50.770;0.250;2024-03-02T08:32:06;15.20;;;1.93;;
5961;SDS011;3007;50.770;0.250;2024-03-02T08:34:33;10.47;;;2.23;;
5961;SDS011;3007;50.770;0.250;2024-03-02T08:37:02;13.00;;;2.10;;
5961;SDS011;3007;50.770;0.250;2024-03-02T08:39:30;12.57;;;1.87;;
5961;SDS011;3007;50.770;0.250;2024-03-02T08:41:57;13.93;;;2.87;;
5961;SDS011;3007;50.770;0.250;2024-03-02T08:44:24;9.17;;;2.03;;
5961;SDS011;3007;50.770;0.250;2024-03-02T08:46:51;13.30;;;2.03;;
5961;SDS011;3007;50.770;0.250;2024-03-02T08:49:17;7.47;;;1.57;;
5961;SDS011;3007;50.770;0.250;2024-03-02T08:51:44;9.57;;;2.20;;
5961;SDS011;3007;50.770;0.250;2024-03-02T08:54:20;8.23;;;1.60;;
5961;SDS011;3007;50.770;0.250;2024-03-02T08:56:47;12.43;;;2.50;;
5961;SDS011;3007;50.770;0.250;2024-03-02T08:59:14;21.97;;;2.80;;
5961;SDS011;3007;50.770;0.250;2024-03-02T09:01:41;14.90;;;2.33;;
5961;SDS011;3007;50.770;0.250;2024-03-02T09:04:08;13.87;;;2.83;;
5961;SDS011;3007;50.770;0.250;2024-03-02T09:06:35;14.10;;;1.87;;
5961;SDS011;3007;50.770;0.250;2024-03-02T09:09:01;15.67;;;2.33;;
5961;SDS011;3007;50.770;0.250;2024-03-02T09:11:30;12.57;;;2.83;;
5961;SDS011;3007;50.770;0.250;2024-03-02T09:13:57;13.07;;;2.13;;
5961;SDS011;3007;50.770;0.250;2024-03-02T09:16:24;18.57;;;3.07;;
5961;SDS011;3007;50.770;0.250;2024-03-02T09:18:55;18.00;;;3.43;;
5961;SDS011;3007;50.770;0.250;2024-03-02T09:21:22;12.87;;;2.30;;
5961;SDS011;3007;50.770;0.250;2024-03-02T09:23:51;20.47;;;3.00;;
5961;SDS011;3007;50.770;0.250;2024-03-02T09:26:18;14.60;;;2.80;;
5961;SDS011;3007;50.770;0.250;2024-03-02T09:28:47;17.20;;;2.40;;
5961;SDS011;3007;50.770;0.250;2024-03-02T09:31:14;16.63;;;2.50;;
5961;SDS011;3007;50.770;0.250;2024-03-02T09:33:40;13.10;;;2.50;;
5961;SDS011;3007;50.770;0.250;2024-03-02T09:36:16;12.47;;;2.87;;
5961;SDS011;3007;50.770;0.250;2024-03-02T09:38:43;11.70;;;1.83;;
5961;SDS011;3007;50.770;0.250;2024-03-02T09:41:10;15.33;;;3.60;;
5961;SDS011;3007;50.770;0.250;2024-03-02T09:43:38;15.67;;;3.00;;
5961;SDS011;3007;50.770;0.250;2024-03-02T09:46:06;12.87;;;3.00;;
5961;SDS011;3007;50.770;0.250;2024-03-02T09:48:34;14.67;;;3.00;;
5961;SDS011;3007;50.770;0.250;2024-03-02T09:51:01;10.70;;;2.90;;
5961;SDS011;3007;50.770;0.250;2024-03-02T09:53:31;10.83;;;2.33;;
5961;SDS011;3007;50.770;0.250;2024-03-02T09:56:01;10.87;;;2.23;;
5961;SDS011;3007;50.770;0.250;2024-03-02T09:58:29;10.87;;;2.13;;
5961;SDS011;3007;50.770;0.250;2024-03-02T10:00:56;9.30;;;2.53;;
5961;SDS011;3007;50.770;0.250;2024-03-02T10:03:25;14.07;;;2.60;;
5961;SDS011;3007;50.770;0.250;2024-03-02T10:05:53;10.57;;;2.70;;
5961;SDS011;3007;50.770;0.250;2024-03-02T10:08:20;17.23;;;3.03;;
5961;SDS011;3007;50.770;0.250;2024-03-02T10:10:47;17.00;;;2.47;;
5961;SDS011;3007;50.770;0.250;2024-03-02T10:13:14;16.20;;;2.80;;
5961;SDS011;3007;50.770;0.250;2024-03-02T10:15:42;11.77;;;2.70;;
5961;SDS011;3007;50.770;0.250;2024-03-02T10:18:09;12.63;;;2.30;;
5961;SDS011;3007;50.770;0.250;2024-03-02T10:20:38;11.07;;;1.73;;
5961;SDS011;3007;50.770;0.250;2024-03-02T10:23:12;12.30;;;2.93;;
5961;SDS011;3007;50.770;0.250;2024-03-02T10:25:40;16.53;;;2.70;;
5961;SDS011;3007;50.770;0.250;2024-03-02T10:28:07;16.10;;;2.47;;
5961;SDS011;3007;50.770;0.250;2024-03-02T10:30:34;11.97;;;2.40;;
5961;SDS011;3007;50.770;0.250;2024-03-02T10:33:01;12.17;;;2.60;;
5961;SDS011;3007;50.770;0.250;2024-03-02T10:35:28;18.77;;;2.50;;
5961;SDS011;3007;50.770;0.250;2024-03-02T10:37:59;17.07;;;2.50;;
5961;SDS011;3007;50.770;0.250;2024-03-02T10:40:26;11.00;;;2.67;;
5961;SDS011;3007;50.770;0.250;2024-03-02T10:42:53;12.03;;;3.07;;
5961;SDS011;3007;50.770;0.250;2024-03-02T10:45:20;13.40;;;2.50;;
5961;SDS011;3007;50.770;0.250;2024-03-02T10:47:48;12.27;;;2.13;;
5961;SDS011;3007;50.770;0.250;2024-03-02T10:50:16;9.23;;;2.00;;
5961;SDS011;3007;50.770;0.250;2024-03-02T10:52:43;15.03;;;2.90;;
5961;SDS011;3007;50.770;0.250;2024-03-02T10:55:12;12.20;;;2.87;;
5961;SDS011;3007;50.770;0.250;2024-03-02T10:57:47;11.57;;;2.77;;
5961;SDS011;3007;50.770;0.250;2024-03-02T11:00:18;10.47;;;2.10;;
5961;SDS011;3007;50.770;0.250;2024-03-02T11:02:50;15.10;;;2.53;;
5961;SDS011;3007;50.770;0.250;2024-03-02T11:05:20;15.17;;;2.60;;
5961;SDS011;3007;50.770;0.250;2024-03-02T11:07:52;13.53;;;2.50;;
5961;SDS011;3007;50.770;0.250;2024-03-02T11:10:24;10.13;;;2.20;;
5961;SDS011;3007;50.770;0.250;2024-03-02T11:12:53;15.43;;;2.53;;
5961;SDS011;3007;50.770;0.250;2024-03-02T11:15:27;11.40;;;2.57;;
5961;SDS011;3007;50.770;0.250;2024-03-02T11:17:54;14.43;;;2.97;;
5961;SDS011;3007;50.770;0.250;2024-03-02T11:20:22;13.83;;;2.90;;
5961;SDS011;3007;50.770;0.250;2024-03-02T11:22:49;16.77;;;3.40;;
5961;SDS011;3007;50.770;0.250;2024-03-02T11:25:22;11.77;;;3.03;;
5961;SDS011;3007;50.770;0.250;2024-03-02T11:28:05;8.37;;;1.80;;
5961;SDS011;3007;50.770;0.250;2024-03-02T11:30:49;5.30;;;1.27;;
5961;SDS011;3007;50.770;0.250;2024-03-02T11:33:24;8.90;;;1.50;;
5961;SDS011;3007;50.770;0.250;2024-03-02T11:35:52;6.53;;;1.80;;
5961;SDS011;3007;50.770;0.250;2024-03-02T11:38:19;12.93;;;2.10;;
5961;SDS011;3007;50.770;0.250;2024-03-02T11:40:47;10.07;;;2.10;;
5961;SDS011;3007;50.770;0.250;2024-03-02T11:43:14;7.20;;;1.60;;
5961;SDS011;3007;50.770;0.250;2024-03-02T11:45:42;10.57;;;1.97;;
5961;SDS011;3007;50.770;0.250;2024-03-02T11:48:10;15.93;;;2.10;;
5961;SDS011;3007;50.770;0.250;2024-03-02T11:50:40;10.03;;;1.97;;
5961;SDS011;3007;50.770;0.250;2024-03-02T11:53:09;9.27;;;1.47;;
5961;SDS011;3007;50.770;0.250;2024-03-02T11:55:38;5.27;;;1.27;;
5961;SDS011;3007;50.770;0.250;2024-03-02T11:58:07;6.80;;;1.40;;
5961;SDS011;3007;50.770;0.250;2024-03-02T12:00:34;3.50;;;0.73;;
5961;SDS011;3007;50.770;0.250;2024-03-02T12:03:02;7.33;;;1.20;;
5961;SDS011;3007;50.770;0.250;2024-03-02T12:05:33;3.90;;;0.93;;
5961;SDS011;3007;50.770;0.250;2024-03-02T12:08:04;6.37;;;1.30;;
5961;SDS011;3007;50.770;0.250;2024-03-02T12:10:32;11.07;;;1.13;;
5961;SDS011;3007;50.770;0.250;2024-03-02T12:13:00;11.17;;;1.53;;
5961;SDS011;3007;50.770;0.250;2024-03-02T12:15:30;2.80;;;0.80;;
5961;SDS011;3007;50.770;0.250;2024-03-02T12:17:58;3.70;;;1.60;;
5961;SDS011;3007;50.770;0.250;2024-03-02T12:20:26;5.53;;;1.27;;
5961;SDS011;3007;50.770;0.250;2024-03-02T12:22:54;5.77;;;1.17;;
5961;SDS011;3007;50.770;0.250;2024-03-02T12:25:22;10.87;;;1.10;;
5961;SDS011;3007;50.770;0.250;2024-03-02T12:27:50;6.53;;;1.23;;
5961;SDS011;3007;50.770;0.250;2024-03-02T12:30:19;5.90;;;1.43;;
5961;SDS011;3007;50.770;0.250;2024-03-02T12:32:48;5.33;;;1.17;;
5961;SDS011;3007;50.770;0.250;2024-03-02T12:35:15;6.20;;;1.00;;
5961;SDS011;3007;50.770;0.250;2024-03-02T12:37:44;6.37;;;1.30;;
5961;SDS011;3007;50.770;0.250;2024-03-02T12:40:11;4.80;;;0.83;;
5961;SDS011;3007;50.770;0.250;2024-03-02T12:42:39;5.00;;;0.97;;
5961;SDS011;3007;50.770;0.250;2024-03-02T12:45:07;4.07;;;0.90;;
5961;SDS011;3007;50.770;0.250;2024-03-02T12:47:34;4.17;;;0.80;;
5961;SDS011;3007;50.770;0.250;2024-03-02T12:50:03;4.83;;;1.20;;
5961;SDS011;3007;50.770;0.250;2024-03-02T12:52:30;1.87;;;0.80;;
5961;SDS011;3007;50.770;0.250;2024-03-02T12:54:59;3.93;;;0.83;;
5961;SDS011;3007;50.770;0.250;2024-03-02T12:57:29;3.93;;;0.83;;
5961;SDS011;3007;50.770;0.250;2024-03-02T12:59:58;3.17;;;0.73;;
5961;SDS011;3007;50.770;0.250;2024-03-02T13:02:27;4.00;;;0.80;;
5961;SDS011;3007;50.770;0.250;2024-03-02T13:04:55;4.73;;;1.03;;
5961;SDS011;3007;50.770;0.250;2024-03-02T13:07:25;4.77;;;1.00;;
5961;SDS011;3007;50.770;0.250;2024-03-02T13:09:53;3.50;;;0.90;;
5961;SDS011;3007;50.770;0.250;2024-03-02T13:12:21;1.67;;;0.87;;
5961;SDS011;3007;50.770;0.250;2024-03-02T13:14:49;3.07;;;0.70;;
5961;SDS011;3007;50.770;0.250;2024-03-02T13:17:17;5.00;;;0.70;;
5961;SDS011;3007;50.770;0.250;2024-03-02T13:19:51;3.83;;;1.27;;
5961;SDS011;3007;50.770;0.250;2024-03-02T13:22:19;4.50;;;1.00;;
5961;SDS011;3007;50.770;0.250;2024-03-02T13:24:47;2.23;;;0.93;;
5961;SDS011;3007;50.770;0.250;2024-03-02T13:27:15;2.53;;;0.63;;
5961;SDS011;3007;50.770;0.250;2024-03-02T13:29:44;2.90;;;0.80;;
5961;SDS011;3007;50.770;0.250;2024-03-02T13:32:12;3.07;;;0.83;;
5961;SDS011;3007;50.770;0.250;2024-03-02T13:34:39;6.17;;;0.93;;
5961;SDS011;3007;50.770;0.250;2024-03-02T13:37:06;2.43;;;0.90;;
5961;SDS011;3007;50.770;0.250;2024-03-02T13:39:36;5.07;;;1.20;;
5961;SDS011;3007;50.770;0.250;2024-03-02T13:42:08;4.47;;;0.90;;
5961;SDS011;3007;50.770;0.250;2024-03-02T13:44:37;5.07;;;1.03;;
5961;SDS011;3007;50.770;0.250;2024-03-02T13:47:04;3.17;;;0.80;;
5961;SDS011;3007;50.770;0.250;2024-03-02T13:49:31;3.87;;;0.80;;
5961;SDS011;3007;50.770;0.250;2024-03-02T13:52:03;4.87;;;0.70;;
5961;SDS011;3007;50.770;0.250;2024-03-02T13:54:39;3.13;;;0.73;;
5961;SDS011;3007;50.770;0.250;2024-03-02T13:57:08;4.57;;;1.00;;
5961;SDS011;3007;50.770;0.250;2024-03-02T13:59:36;5.57;;;1.17;;
5961;SDS011;3007;50.770;0.250;2024-03-02T14:02:04;1.93;;;0.83;;
5961;SDS011;3007;50.770;0.250;2024-03-02T14:04:32;3.77;;;0.83;;
5961;SDS011;3007;50.770;0.250;2024-03-02T14:06:59;2.23;;;0.93;;
5961;SDS011;3007;50.770;0.250;2024-03-02T14:09:27;2.63;;;0.80;;
5961;SDS011;3007;50.770;0.250;2024-03-02T14:11:54;6.07;;;1.30;;
5961;SDS011;3007;50.770;0.250;2024-03-02T14:14:23;9.33;;;1.00;;
5961;SDS011;3007;50.770;0.250;2024-03-02T14:16:50;3.67;;;1.10;;
5961;SDS011;3007;50.770;0.250;2024-03-02T14:19:17;2.53;;;0.77;;
5961;SDS011;3007;50.770;0.250;2024-03-02T14:21:44;3.00;;;0.80;;
5961;SDS011;3007;50.770;0.250;2024-03-02T14:24:12;4.67;;;1.07;;
5961;SDS011;3007;50.770;0.250;2024-03-02T14:26:39;3.43;;;0.70;;
5961;SDS011;3007;50.770;0.250;2024-03-02T14:29:06;2.43;;;0.77;;
5961;SDS011;3007;50.770;0.250;2024-03-02T14:31:35;6.33;;;0.90;;
5961;SDS011;3007;50.770;0.250;2024-03-02T14:34:02;4.00;;;0.83;;
5961;SDS011;3007;50.770;0.250;2024-03-02T14:36:29;4.50;;;0.70;;
5961;SDS011;3007;50.770;0.250;2024-03-02T14:38:56;2.47;;;0.90;;
5961;SDS011;3007;50.770;0.250;2024-03-02T14:41:23;2.87;;;0.67;;
5961;SDS011;3007;50.770;0.250;2024-03-02T14:43:50;5.47;;;1.30;;
5961;SDS011;3007;50.770;0.250;2024-03-02T14:46:17;3.03;;;0.80;;
5961;SDS011;3007;50.770;0.250;2024-03-02T14:48:45;5.13;;;1.13;;
5961;SDS011;3007;50.770;0.250;2024-03-02T14:51:12;4.97;;;1.10;;
5961;SDS011;3007;50.770;0.250;2024-03-02T14:53:39;3.77;;;0.90;;
5961;SDS011;3007;50.770;0.250;2024-03-02T14:56:06;3.33;;;1.10;;
5961;SDS011;3007;50.770;0.250;2024-03-02T14:58:33;4.03;;;1.20;;
5961;SDS011;3007;50.770;0.250;2024-03-02T15:01:00;5.47;;;1.40;;
5961;SDS011;3007;50.770;0.250;2024-03-02T15:03:27;1.97;;;0.73;;
5961;SDS011;3007;50.770;0.250;2024-03-02T15:05:55;2.03;;;0.80;;
5961;SDS011;3007;50.770;0.250;2024-03-02T15:08:22;2.67;;;0.83;;
5961;SDS011;3007;50.770;0.250;2024-03-02T15:10:49;3.00;;;0.87;;
5961;SDS011;3007;50.770;0.250;2024-03-02T15:13:16;2.23;;;0.90;;
5961;SDS011;3007;50.770;0.250;2024-03-02T15:15:43;4.50;;;1.27;;
5961;SDS011;3007;50.770;0.250;2024-03-02T15:18:11;3.47;;;0.63;;